Terminal Aerodrome Forecast
Issued by NWS

Home | Current Version | Previous Version | Text Only | Print | Product List | Glossary On
Versions: 1 2 3 4 5 6 7 8 9 10 11 12 13 14 15
000
FTUS46 KPDT 242327
TAFALW
TAF
KALW 242327Z 2500/2524 24011G18KT P6SM BKN080
     FM250300 21008KT P6SM BKN070
     FM250600 17007KT P6SM SCT070 BKN120
     FM251400 20006KT P6SM BKN070 OVC150
     FM251800 14005KT P6SM VCSH BKN060 OVC100=

USA.gov is the U.S. government's official web portal to all federal, state and local government web resources and services.